Página principal
METAR-TAF:

METAR-TAF

Aeroportos :

Aeroporto Internacional de Túnis-Cartago

Tunes, Tunísia

latitude: 36-50N, longitude: 010-14E, altura: 3 m

Observação actual do tempo

O boletim foi feito há 20 minutos, às 02:30 UTC
Vento 1 kt de norte
Temperatura 14°C
Humidade 72%
Pressão 1018 hPa
Visibilidade: 1000 m
Nuvens dispersasa uma altura de 2600 ft

METAR: DTTA 230230Z 35001KT 1000 SCT026 14/09 Q1018

Hora: 03:50 (02:50 UTC)

Previsão

O boletim foi feito há 3 horas e 50 minutos, às 23:00 UTC
Previsão válida de 23 às 00 UTC a 23 às 24 UTC
Vento 4 kt com direcção variável
Visibilidade 10 km ou mais
Nuvens dispersasa uma altura de 2600 ft
Tornando-se
de 23 às 10 UTC a 23 às 12 UTC
Vento 12 kt de norte
Tornando-se
de 23 às 20 UTC a 23 às 22 UTC
Vento 4 kt com direcção variável

TAF: DTTA 222300Z 2300/2324 VRB04KT 9999 SCT026 BECMG 2310/2312 36012KT BECMG 2320/2322 VRB04KT

Observações e previsões do tempo de mais de 4000 aeroportos (mensagens METAR e TAF).

As estações disponíveis são os pontos amarelos e vermelhos sobre o mapa.

Mova o rato sobre o mapa para ver o nome da estação.

Depois clique no ponto para visualizar as observações e previsões meteorológicas.

Para alterar o mapa : clique nos botões verdes com uma cruz preta para aumentar o zoom; no botão verde com uma pitada de zoom; ou nas setas verdes para mapas adjacentes.


METAR-TAF: